Terminal Aerodrome Forecast
Issued by NWS Wilmington, OH

Current Version | Previous Version | Text Only | Print | Product List | Glossary Off
Versions: 1 2 3 4 5 6 7 8 9 10 11 12 13 14 15 16 17 18 19 20 21 22

455
FTUS41 KILN 031120
TAFDAY
TAF
KDAY 031120Z 0312/0412 28008KT P6SM OVC035
     FM031300 28008KT P6SM OVC025
     FM032200 VRB03KT P6SM BKN035
     FM041000 12004KT P6SM FEW040 BKN150=

USA.gov is the U.S. government's official web portal to all federal, state and local government web resources and services.